Time;durP1;ratioP1;P1;durP2;ratioP2;P2;SDS_P1;SDS_P2;PMS_P1;PMS_P2;Temp;Humidity;BMP_temperature;BMP_pressure;BME280_temperature;BME280_humidity;BME280_pressure;Samples;Min_cycle;Max_cycle;Signal;HPM_P1;HPM_P2
2022/10/23 00:01:39;;;;;;;29.92;17.02;;;;;;;;;;5347444;26;20001;-76
2022/10/23 00:04:04;;;;;;;;;;;;;;;;;;5327818;26;20029;-76
2022/10/23 00:06:31;;;;;;;27.83;17.58;;;;;;;;;;5347882;26;19934;-76
2022/10/23 00:08:56;;;;;;;30.00;18.73;;;;;;;;;;5348079;26;20004;-75
2022/10/23 00:11:21;;;;;;;;;;;;;;;;;;5349112;26;20010;-76
2022/10/23 00:13:46;;;;;;;25.25;17.62;;;;;;;;;;5346552;26;20221;-75
2022/10/23 00:16:11;;;;;;;27.55;18.95;;;;;;;;;;5346107;26;20051;-76
2022/10/23 00:18:37;;;;;;;34.55;19.23;;;;;;;;;;5348914;26;20001;-76
2022/10/23 00:21:03;;;;;;;28.75;18.40;;;;;;;;;;5348840;26;20000;-75
2022/10/23 00:23:28;;;;;;;;;;;;;;;;;;5349141;26;20310;-76
2022/10/23 00:25:53;;;;;;;31.40;20.67;;;;;;;;;;5348095;26;19956;-76
2022/10/23 00:28:18;;;;;;;27.67;18.50;;;;;;;;;;5326258;26;20307;-76
2022/10/23 00:30:43;;;;;;;22.92;16.73;;;;;;;;;;5348756;26;20011;-76
2022/10/23 00:33:09;;;;;;;28.15;18.92;;;;;;;;;;5346374;26;20001;-75
2022/10/23 00:35:34;;;;;;;;;;;;;;;;;;5347130;26;20001;-76
2022/10/23 00:38:20;;;;;;;34.47;18.52;;;;;;;;;;5346744;26;19967;-75
2022/10/23 00:40:45;;;;;;;32.75;19.90;;;;;;;;;;5327564;26;20311;-71
2022/10/23 00:43:11;;;;;;;;;;;;;;;;;;5348262;26;20010;-71
2022/10/23 00:45:36;;;;;;;28.35;18.85;;;;;;;;;;5349702;26;19938;-71
2022/10/23 00:48:02;;;;;;;27.52;19.20;;;;;;;;;;5348066;26;20015;-71
2022/10/23 00:50:28;;;;;;;32.17;19.27;;;;;;;;;;5349749;26;20040;-71
2022/10/23 00:52:54;;;;;;;30.98;18.60;;;;;;;;;;5350137;26;20044;-71
2022/10/23 00:55:21;;;;;;;34.63;18.87;;;;;;;;;;5350335;26;20036;-71
2022/10/23 00:57:47;;;;;;;28.60;17.87;;;;;;;;;;5349451;26;20023;-71
2022/10/23 01:00:15;;;;;;;24.42;18.62;;;;;;;;;;5330112;26;20047;-71
2022/10/23 01:02:40;;;;;;;26.35;18.35;;;;;;;;;;5348304;26;20057;-71
2022/10/23 01:05:07;;;;;;;30.65;19.45;;;;;;;;;;5348517;26;20004;-71
2022/10/23 01:07:37;;;;;;;29.48;19.40;;;;;;;;;;5346113;26;20012;-71
2022/10/23 01:10:13;;;;;;;30.02;19.70;;;;;;;;;;5350214;26;20023;-70
2022/10/23 01:12:38;;;;;;;27.77;17.25;;;;;;;;;;5327978;26;20374;-70
2022/10/23 01:15:19;;;;;;;25.27;17.30;;;;;;;;;;5350216;26;20000;-71
2022/10/23 01:17:48;;;;;;;28.83;16.30;;;;;;;;;;5327686;26;20011;-70
2022/10/23 01:20:26;;;;;;;23.75;15.52;;;;;;;;;;5349867;26;20005;-70
2022/10/23 01:23:10;;;;;;;29.25;18.87;;;;;;;;;;5347608;26;20010;-71
2022/10/23 01:25:41;;;;;;;35.47;18.40;;;;;;;;;;5348579;26;20320;-71
2022/10/23 01:28:09;;;;;;;32.15;18.08;;;;;;;;;;5349990;26;20035;-71
2022/10/23 01:30:36;;;;;;;27.48;18.48;;;;;;;;;;5350496;26;20004;-71
2022/10/23 01:33:13;;;;;;;23.12;14.27;;;;;;;;;;5349504;26;20020;-71
2022/10/23 01:35:49;;;;;;;27.98;17.45;;;;;;;;;;5350227;26;20004;-71
2022/10/23 01:38:23;;;;;;;32.50;17.92;;;;;;;;;;5346994;26;20020;-71
2022/10/23 01:40:56;;;;;;;23.48;18.17;;;;;;;;;;5326876;27;20045;-71
2022/10/23 01:43:27;;;;;;;32.92;19.20;;;;;;;;;;5325186;27;20001;-70
2022/10/23 01:45:55;;;;;;;30.37;19.73;;;;;;;;;;5326427;27;20011;-70
2022/10/23 01:48:23;;;;;;;26.87;18.80;;;;;;;;;;5323796;27;20016;-71
2022/10/23 01:50:49;;;;;;;27.13;16.60;;;;;;;;;;5326890;27;20017;-71
2022/10/23 01:53:14;;;;;;;;;;;;;;;;;;5326388;27;20038;-71
2022/10/23 01:55:41;;;;;;;29.98;19.30;;;;;;;;;;5305513;27;20312;-70
2022/10/23 01:58:07;;;;;;;24.20;16.23;;;;;;;;;;5327313;27;20148;-71
2022/10/23 02:00:33;;;;;;;26.80;17.50;;;;;;;;;;5324841;27;20000;-70
2022/10/23 02:02:58;;;;;;;;;;;;;;;;;;5328508;27;20315;-71
2022/10/23 02:05:25;;;;;;;27.48;18.33;;;;;;;;;;5328350;27;19981;-70
2022/10/23 02:07:51;;;;;;;51.25;18.60;;;;;;;;;;5329221;27;20454;-70
2022/10/23 02:10:16;;;;;;;27.13;16.85;;;;;;;;;;5329089;27;20009;-70
2022/10/23 02:12:41;;;;;;;;;;;;;;;;;;5325345;27;20070;-71
2022/10/23 02:15:07;;;;;;;34.13;18.10;;;;;;;;;;5328552;27;19954;-70
2022/10/23 02:17:45;;;;;;;37.30;19.67;;;;;;;;;;5326620;27;20008;-70
2022/10/23 02:20:19;;;;;;;29.05;17.15;;;;;;;;;;5327701;27;20034;-70
2022/10/23 02:23:11;;;;;;;27.80;19.15;;;;;;;;;;5326697;27;20090;-71
2022/10/23 02:25:39;;;;;;;31.60;18.52;;;;;;;;;;5308900;27;20153;-70
2022/10/23 02:28:06;;;;;;;33.45;18.87;;;;;;;;;;5327746;27;20296;-71
2022/10/23 02:30:33;;;;;;;25.10;17.35;;;;;;;;;;5326224;27;20001;-70
2022/10/23 02:32:59;;;;;;;26.75;18.33;;;;;;;;;;5328147;27;20020;-71
2022/10/23 02:35:25;;;;;;;28.40;18.58;;;;;;;;;;5329433;27;20004;-70
2022/10/23 02:37:50;;;;;;;;;;;;;;;;;;5327471;27;20067;-70
2022/10/23 02:40:15;;;;;;;32.47;18.50;;;;;;;;;;5326330;26;19938;-70
2022/10/23 02:42:40;;;;;;;33.97;19.52;;;;;;;;;;5328377;27;20011;-70
2022/10/23 02:45:19;;;;;;;31.87;19.37;;;;;;;;;;5326717;27;20382;-70
2022/10/23 02:47:54;;;;;;;26.17;16.95;;;;;;;;;;5329039;27;20089;-70
2022/10/23 02:50:32;;;;;;;27.05;18.27;;;;;;;;;;5326977;27;20004;-71
2022/10/23 02:53:06;;;;;;;30.25;18.62;;;;;;;;;;5306477;27;20044;-70
2022/10/23 02:55:42;;;;;;;41.10;21.85;;;;;;;;;;5327711;27;20005;-71
2022/10/23 02:58:19;;;;;;;20.48;15.15;;;;;;;;;;5328293;27;20039;-71
2022/10/23 03:00:47;;;;;;;29.30;18.08;;;;;;;;;;5326892;27;20095;-72
2022/10/23 03:03:18;;;;;;;32.60;19.15;;;;;;;;;;5328782;27;20330;-70
2022/10/23 03:05:46;;;;;;;24.40;17.75;;;;;;;;;;5308643;27;20001;-70
2022/10/23 03:08:12;;;;;;;31.95;17.08;;;;;;;;;;5328585;27;20005;-71
2022/10/23 03:10:38;;;;;;;28.05;17.70;;;;;;;;;;5326072;27;20043;-70
2022/10/23 03:13:03;;;;;;;28.48;14.57;;;;;;;;;;5326034;27;20002;-71
2022/10/23 03:15:28;;;;;;;;;;;;;;;;;;5329426;27;20016;-71
2022/10/23 03:17:54;;;;;;;29.05;18.00;;;;;;;;;;5305963;27;19931;-70
2022/10/23 03:20:19;;;;;;;26.33;16.98;;;;;;;;;;5328895;27;20333;-70
2022/10/23 03:22:44;;;;;;;26.83;16.55;;;;;;;;;;5326436;27;20078;-71
2022/10/23 03:25:09;;;;;;;;;;;;;;;;;;5326433;27;20037;-70
2022/10/23 03:27:34;;;;;;;18.83;14.10;;;;;;;;;;5308827;27;19924;-71
2022/10/23 03:30:00;;;;;;;23.83;16.52;;;;;;;;;;5306414;27;20007;-70
2022/10/23 03:32:25;;;;;;;21.90;16.10;;;;;;;;;;5326568;27;20000;-70
2022/10/23 03:34:50;;;;;;;;;;;;;;;;;;5326395;27;20000;-71
2022/10/23 03:37:15;;;;;;;26.30;16.58;;;;;;;;;;5329053;27;19928;-70
2022/10/23 03:39:40;;;;;;;25.42;16.25;;;;;;;;;;5325836;26;20433;-71
2022/10/23 03:42:06;;;;;;;23.87;15.43;;;;;;;;;;5327184;27;20035;-70
2022/10/23 03:44:32;;;;;;;29.35;16.60;;;;;;;;;;5328617;27;20038;-70
2022/10/23 03:46:58;;;;;;;28.20;18.73;;;;;;;;;;5327310;27;20015;-72
2022/10/23 03:49:23;;;;;;;;;;;;;;;;;;5326576;27;20000;-72
2022/10/23 03:51:51;;;;;;;19.17;12.90;;;;;;;;;;5327798;27;19999;-70
2022/10/23 03:54:26;;;;;;;24.90;15.88;;;;;;;;;;5326930;27;20047;-70
2022/10/23 03:56:52;;;;;;;31.80;18.05;;;;;;;;;;5328688;27;20082;-70
2022/10/23 03:59:17;;;;;;;;;;;;;;;;;;5328481;27;20421;-70
2022/10/23 04:01:42;;;;;;;17.95;11.73;;;;;;;;;;5327319;27;19935;-71
2022/10/23 04:04:07;;;;;;;;;;;;;;;;;;5325938;27;20104;-72
2022/10/23 04:06:32;;;;;;;30.33;14.02;;;;;;;;;;5326596;27;19928;-72
2022/10/23 04:08:58;;;;;;;23.87;13.60;;;;;;;;;;5328224;27;20048;-71
2022/10/23 04:11:23;;;;;;;21.67;13.88;;;;;;;;;;5326563;27;20000;-71
2022/10/23 04:13:48;;;;;;;;;;;;;;;;;;5306318;27;19997;-71
2022/10/23 04:16:13;;;;;;;25.58;14.07;;;;;;;;;;5306417;27;19927;-71
2022/10/23 04:18:38;;;;;;;;;;;;;;;;;;5329167;27;20151;-70
2022/10/23 04:21:04;;;;;;;25.75;13.60;;;;;;;;;;5326308;27;19927;-71
2022/10/23 04:23:29;;;;;;;26.77;14.93;;;;;;;;;;5308411;27;20023;-71
2022/10/23 04:25:55;;;;;;;24.12;15.45;;;;;;;;;;5328152;27;20414;-71
2022/10/23 04:28:20;;;;;;;23.23;15.38;;;;;;;;;;5328760;27;20033;-71
2022/10/23 04:30:45;;;;;;;;;;;;;;;;;;5328601;27;20046;-71
2022/10/23 04:33:10;;;;;;;30.40;16.65;;;;;;;;;;5306704;27;19927;-70
2022/10/23 04:35:35;;;;;;;19.67;13.52;;;;;;;;;;5327586;27;20138;-71
2022/10/23 04:38:00;;;;;;;32.63;14.48;;;;;;;;;;5327230;27;20005;-70
2022/10/23 04:40:26;;;;;;;28.00;15.77;;;;;;;;;;5326094;26;20057;-71
2022/10/23 04:42:51;;;;;;;24.30;15.98;;;;;;;;;;5326183;27;20045;-71
2022/10/23 04:45:16;;;;;;;27.27;14.93;;;;;;;;;;5328206;27;20034;-71
2022/10/23 04:47:41;;;;;;;26.67;15.13;;;;;;;;;;5306383;27;20054;-71
2022/10/23 04:50:06;;;;;;;20.17;12.95;;;;;;;;;;5325546;27;20341;-70
2022/10/23 04:52:32;;;;;;;22.17;13.18;;;;;;;;;;5326207;27;20448;-71
2022/10/23 04:54:57;;;;;;;27.55;15.82;;;;;;;;;;5325679;27;20042;-71
2022/10/23 04:57:22;;;;;;;22.83;15.52;;;;;;;;;;5325505;27;20001;-71
2022/10/23 04:59:47;;;;;;;26.67;16.55;;;;;;;;;;5328307;27;20348;-71
2022/10/23 05:02:12;;;;;;;;;;;;;;;;;;5306317;27;20094;-70
2022/10/23 05:04:37;;;;;;;21.67;14.38;;;;;;;;;;5305587;27;20312;-71
2022/10/23 05:07:03;;;;;;;18.87;13.43;;;;;;;;;;5328041;27;20000;-71
2022/10/23 05:09:28;;;;;;;;;;;;;;;;;;5328194;27;20029;-71
2022/10/23 05:11:53;;;;;;;23.10;14.25;;;;;;;;;;5327866;27;20092;-71
2022/10/23 05:14:18;;;;;;;23.33;13.75;;;;;;;;;;5328088;27;20000;-70
2022/10/23 05:16:43;;;;;;;;;;;;;;;;;;5328477;27;20001;-71
2022/10/23 05:19:11;;;;;;;22.52;13.75;;;;;;;;;;5305380;27;19939;-71
2022/10/23 05:21:37;;;;;;;24.63;12.57;;;;;;;;;;5327935;27;20400;-71
2022/10/23 05:24:02;;;;;;;;;;;;;;;;;;5307175;27;19997;-71
2022/10/23 05:26:27;;;;;;;18.90;12.63;;;;;;;;;;5327057;27;20002;-71
2022/10/23 05:28:53;;;;;;;19.73;12.75;;;;;;;;;;5305501;27;19997;-69
2022/10/23 05:31:19;;;;;;;17.77;12.70;;;;;;;;;;5326230;27;20001;-71
2022/10/23 05:33:44;;;;;;;24.17;13.80;;;;;;;;;;5306207;27;20341;-71
2022/10/23 05:36:09;;;;;;;;;;;;;;;;;;5328267;27;20008;-71
2022/10/23 05:38:35;;;;;;;20.40;13.38;;;;;;;;;;5305070;27;19928;-70
2022/10/23 05:41:00;;;;;;;27.33;14.40;;;;;;;;;;5327788;27;20379;-70
2022/10/23 05:43:26;;;;;;;14.18;12.32;;;;;;;;;;5326659;27;20439;-74
2022/10/23 05:45:51;;;;;;;22.85;14.38;;;;;;;;;;5327425;27;20008;-70
2022/10/23 05:48:16;;;;;;;19.02;12.93;;;;;;;;;;5328954;27;20036;-72
2022/10/23 05:50:41;;;;;;;21.85;14.77;;;;;;;;;;5327636;27;20014;-71
2022/10/23 05:53:08;;;;;;;25.12;16.25;;;;;;;;;;5327399;27;20032;-72
2022/10/23 05:55:34;;;;;;;32.88;17.45;;;;;;;;;;5306943;27;19996;-71
2022/10/23 05:57:59;;;;;;;;;;;;;;;;;;5327105;27;20040;-72
2022/10/23 06:00:24;;;;;;;32.00;15.82;;;;;;;;;;5327070;27;19935;-69
2022/10/23 06:02:49;;;;;;;23.27;14.87;;;;;;;;;;5326678;27;20000;-72
2022/10/23 06:05:14;;;;;;;17.25;12.52;;;;;;;;;;5328875;27;20002;-71
2022/10/23 06:07:39;;;;;;;22.58;14.95;;;;;;;;;;5327182;27;20418;-70
2022/10/23 06:10:05;;;;;;;23.98;15.52;;;;;;;;;;5328492;27;20016;-70
2022/10/23 06:12:30;;;;;;;;;;;;;;;;;;5307162;27;20007;-70
2022/10/23 06:14:55;;;;;;;25.40;14.43;;;;;;;;;;5328745;27;19938;-70
2022/10/23 06:17:20;;;;;;;25.37;15.18;;;;;;;;;;5326325;27;20016;-71
2022/10/23 06:19:46;;;;;;;23.00;14.50;;;;;;;;;;5326863;27;20008;-71
2022/10/23 06:22:11;;;;;;;;;;;;;;;;;;5329503;27;20016;-72
2022/10/23 06:24:36;;;;;;;25.25;15.10;;;;;;;;;;5327529;27;20257;-72
2022/10/23 06:27:01;;;;;;;;;;;;;;;;;;5329757;27;20153;-71
2022/10/23 06:29:26;;;;;;;20.50;14.55;;;;;;;;;;5329010;27;19955;-71
2022/10/23 06:31:51;;;;;;;21.73;14.77;;;;;;;;;;5327459;27;20000;-70
2022/10/23 06:34:16;;;;;;;;;;;;;;;;;;5306746;27;20120;-70
2022/10/23 06:36:42;;;;;;;22.83;16.08;;;;;;;;;;5326115;27;19927;-70
2022/10/23 06:39:08;;;;;;;25.20;15.57;;;;;;;;;;5325580;27;20048;-70
2022/10/23 06:41:34;;;;;;;23.92;15.80;;;;;;;;;;5326968;27;20008;-70
2022/10/23 06:43:59;;;;;;;;;;;;;;;;;;5306729;27;20012;-70
2022/10/23 06:46:25;;;;;;;20.52;15.85;;;;;;;;;;5306176;27;19951;-71
2022/10/23 06:48:51;;;;;;;19.17;13.50;;;;;;;;;;5328267;27;20013;-71
2022/10/23 06:51:16;;;;;;;19.87;12.93;;;;;;;;;;5328108;27;20044;-72
2022/10/23 06:53:42;;;;;;;28.50;14.98;;;;;;;;;;5326928;27;20401;-71
2022/10/23 06:56:07;;;;;;;21.58;14.48;;;;;;;;;;5328758;27;20027;-70
2022/10/23 06:58:33;;;;;;;22.58;12.88;;;;;;;;;;5308166;27;20355;-70
2022/10/23 07:01:00;;;;;;;19.17;13.52;;;;;;;;;;5305724;27;20008;-71
2022/10/23 07:03:25;;;;;;;19.70;13.45;;;;;;;;;;5325842;27;20337;-70
2022/10/23 07:05:50;;;;;;;;;;;;;;;;;;5326252;27;20016;-71
2022/10/23 07:08:15;;;;;;;27.27;13.90;;;;;;;;;;5325827;27;19939;-71
2022/10/23 07:10:44;;;;;;;25.02;14.13;;;;;;;;;;5328153;27;20000;-70
2022/10/23 07:13:10;;;;;;;27.02;13.38;;;;;;;;;;5324454;27;20004;-71
2022/10/23 07:15:35;;;;;;;;;;;;;;;;;;5328078;27;20383;-71
2022/10/23 07:18:00;;;;;;;22.52;13.23;;;;;;;;;;5325622;27;19950;-71
2022/10/23 07:20:25;;;;;;;;;;;;;;;;;;5326855;27;20011;-71
2022/10/23 07:22:54;;;;;;;21.48;12.88;;;;;;;;;;5325604;27;19949;-70
2022/10/23 07:25:20;;;;;;;23.83;13.23;;;;;;;;;;5308515;27;20000;-71
2022/10/23 07:27:45;;;;;;;;;;;;;;;;;;5306145;27;20028;-71
2022/10/23 07:30:11;;;;;;;26.13;13.07;;;;;;;;;;5306694;27;20344;-72
2022/10/23 07:32:36;;;;;;;28.75;12.68;;;;;;;;;;5328624;27;20060;-71
2022/10/23 07:35:02;;;;;;;;;;;;;;;;;;5325952;27;20088;-71
2022/10/23 07:37:27;;;;;;;24.52;13.10;;;;;;;;;;5328297;27;19954;-72
2022/10/23 07:39:53;;;;;;;17.62;12.30;;;;;;;;;;5325036;26;20399;-72
2022/10/23 07:42:18;;;;;;;20.42;12.55;;;;;;;;;;5325503;27;20015;-75
2022/10/23 07:44:43;;;;;;;29.63;12.73;;;;;;;;;;5326366;27;20005;-70
2022/10/23 07:47:08;;;;;;;;;;;;;;;;;;5327148;27;20001;-71
2022/10/23 07:49:33;;;;;;;23.00;13.27;;;;;;;;;;5326756;27;19928;-71
2022/10/23 07:51:58;;;;;;;;;;;;;;;;;;5306261;27;20042;-71
2022/10/23 07:54:24;;;;;;;25.35;12.98;;;;;;;;;;5325651;27;19939;-72
2022/10/23 07:56:49;;;;;;;20.08;11.25;;;;;;;;;;5304825;27;20000;-73
2022/10/23 07:59:14;;;;;;;;;;;;;;;;;;5326475;27;20004;-72
2022/10/23 08:01:41;;;;;;;17.77;11.00;;;;;;;;;;5327561;27;19942;-72
2022/10/23 08:04:06;;;;;;;20.00;12.05;;;;;;;;;;5326377;27;20020;-71
2022/10/23 08:06:31;;;;;;;;;;;;;;;;;;5326517;27;20287;-71
2022/10/23 08:08:56;;;;;;;16.58;10.75;;;;;;;;;;5307806;27;20326;-73
2022/10/23 08:11:25;;;;;;;16.50;10.93;;;;;;;;;;5323809;27;20433;-72
2022/10/23 08:13:51;;;;;;;19.23;11.20;;;;;;;;;;5326683;27;20028;-72
2022/10/23 08:16:16;;;;;;;;;;;;;;;;;;5325539;27;20007;-71
2022/10/23 08:18:44;;;;;;;16.70;10.20;;;;;;;;;;5323448;27;19931;-72
2022/10/23 08:21:09;;;;;;;15.52;9.88;;;;;;;;;;5324566;27;20001;-72
2022/10/23 08:23:34;;;;;;;;;;;;;;;;;;5326082;27;20007;-71
2022/10/23 08:26:00;;;;;;;16.85;9.43;;;;;;;;;;5326320;27;19928;-72
2022/10/23 08:28:26;;;;;;;18.52;10.10;;;;;;;;;;5305327;27;20024;-72
2022/10/23 08:30:52;;;;;;;13.60;9.45;;;;;;;;;;5327816;27;20020;-72
2022/10/23 08:33:17;;;;;;;13.52;8.90;;;;;;;;;;5327207;27;20035;-72
2022/10/23 08:35:42;;;;;;;16.08;10.40;;;;;;;;;;5325360;27;20000;-71
2022/10/23 08:38:07;;;;;;;19.02;9.75;;;;;;;;;;5326769;27;20031;-71
2022/10/23 08:40:33;;;;;;;14.43;10.15;;;;;;;;;;5305240;27;20028;-74
2022/10/23 08:43:05;;;;;;;21.67;11.75;;;;;;;;;;5326427;27;20008;-72
2022/10/23 08:45:33;;;;;;;13.73;9.20;;;;;;;;;;5304558;27;20005;-72
2022/10/23 08:48:03;;;;;;;15.30;8.88;;;;;;;;;;5322440;27;20064;-72
2022/10/23 08:50:34;;;;;;;17.52;9.88;;;;;;;;;;5304789;27;20055;-70
2022/10/23 08:53:02;;;;;;;16.15;8.23;;;;;;;;;;5305533;27;20043;-72
2022/10/23 08:55:39;;;;;;;12.70;8.45;;;;;;;;;;5306822;27;20032;-72
2022/10/23 08:58:06;;;;;;;19.17;9.32;;;;;;;;;;5325507;27;20475;-72
2022/10/23 09:00:32;;;;;;;17.05;8.80;;;;;;;;;;5305244;27;20034;-72
2022/10/23 09:02:59;;;;;;;11.95;9.05;;;;;;;;;;5325838;27;20032;-73
2022/10/23 09:05:29;;;;;;;13.68;8.95;;;;;;;;;;5306824;27;20005;-72
2022/10/23 09:08:06;;;;;;;12.90;9.80;;;;;;;;;;5306667;27;20084;-71
2022/10/23 09:10:31;;;;;;;21.98;10.57;;;;;;;;;;5302645;27;20000;-72
2022/10/23 09:13:01;;;;;;;15.05;9.23;;;;;;;;;;5323919;27;20029;-72
2022/10/23 09:15:29;;;;;;;19.42;10.00;;;;;;;;;;5326754;27;20114;-73
2022/10/23 09:17:57;;;;;;;12.20;8.18;;;;;;;;;;5323850;27;20039;-72
2022/10/23 09:20:24;;;;;;;13.75;8.73;;;;;;;;;;5305744;27;20382;-71
2022/10/23 09:22:53;;;;;;;11.10;8.52;;;;;;;;;;5327404;27;20020;-71
2022/10/23 09:25:24;;;;;;;12.43;8.35;;;;;;;;;;5327681;27;20052;-71
2022/10/23 09:27:52;;;;;;;11.38;8.60;;;;;;;;;;5325703;27;19996;-72
2022/10/23 09:30:24;;;;;;;15.82;9.85;;;;;;;;;;5327567;27;20028;-72
2022/10/23 09:32:49;;;;;;;12.55;8.00;;;;;;;;;;5328547;27;20008;-72
2022/10/23 09:35:22;;;;;;;14.85;9.90;;;;;;;;;;5325320;27;20040;-71
2022/10/23 09:37:51;;;;;;;12.63;9.23;;;;;;;;;;5324991;27;20087;-72
2022/10/23 09:40:20;;;;;;;22.87;10.55;;;;;;;;;;5324081;27;20038;-74
2022/10/23 09:43:03;;;;;;;15.43;8.63;;;;;;;;;;5325431;27;20043;-73
2022/10/23 09:45:28;;;;;;;14.63;9.50;;;;;;;;;;5326443;27;20413;-72
2022/10/23 09:48:03;;;;;;;14.02;10.15;;;;;;;;;;5325977;27;20031;-73
2022/10/23 09:50:28;;;;;;;10.87;7.77;;;;;;;;;;5324745;27;20067;-73
2022/10/23 09:52:54;;;;;;;14.38;8.70;;;;;;;;;;5324771;27;20339;-73
2022/10/23 09:55:24;;;;;;;23.60;10.45;;;;;;;;;;5326032;27;20001;-73
2022/10/23 09:57:50;;;;;;;14.60;8.68;;;;;;;;;;5327703;27;20364;-73
2022/10/23 10:00:15;;;;;;;13.35;8.40;;;;;;;;;;5326909;27;20002;-73
2022/10/23 10:02:41;;;;;;;15.85;8.82;;;;;;;;;;5327623;27;20015;-73
2022/10/23 10:05:27;;;;;;;12.65;8.07;;;;;;;;;;5325081;27;20306;-73
2022/10/23 10:07:58;;;;;;;26.08;9.75;;;;;;;;;;5325282;27;19992;-73
2022/10/23 10:10:23;;;;;;;18.45;8.63;;;;;;;;;;5324298;27;20005;-72
2022/10/23 10:12:50;;;;;;;10.32;8.38;;;;;;;;;;5327224;27;20327;-72
2022/10/23 10:15:21;;;;;;;11.70;7.97;;;;;;;;;;5325262;27;20169;-71
2022/10/23 10:18:13;;;;;;;13.65;8.93;;;;;;;;;;5323979;27;20023;-71
2022/10/23 10:20:43;;;;;;;13.18;7.97;;;;;;;;;;5325542;27;20025;-73
2022/10/23 10:23:21;;;;;;;13.00;8.40;;;;;;;;;;5326460;27;20004;-71
2022/10/23 10:26:21;;;;;;;10.13;8.25;;;;;;;;;;5327501;27;20026;-72
2022/10/23 10:29:05;;;;;;;16.37;8.75;;;;;;;;;;5279499;27;20351;-71
2022/10/23 10:31:49;;;;;;;11.82;7.60;;;;;;;;;;5321222;27;20070;-71
2022/10/23 10:34:23;;;;;;;14.27;8.30;;;;;;;;;;5327183;27;20015;-71
2022/10/23 10:36:51;;;;;;;13.93;8.30;;;;;;;;;;5328419;27;19985;-72
2022/10/23 10:39:19;;;;;;;16.73;11.10;;;;;;;;;;5325392;26;20137;-71
2022/10/23 10:41:53;;;;;;;11.90;7.90;;;;;;;;;;5327319;27;20288;-71
2022/10/23 10:44:28;;;;;;;16.12;8.88;;;;;;;;;;5306401;27;20378;-72
2022/10/23 10:47:11;;;;;;;15.80;7.97;;;;;;;;;;5326971;27;19996;-72
2022/10/23 10:49:39;;;;;;;10.52;7.55;;;;;;;;;;5326756;27;20021;-72
2022/10/23 10:52:15;;;;;;;12.52;7.53;;;;;;;;;;5325975;27;20016;-73
2022/10/23 10:54:57;;;;;;;12.15;6.90;;;;;;;;;;5326902;27;20073;-72
2022/10/23 10:57:28;;;;;;;17.27;8.10;;;;;;;;;;5327607;27;20379;-71
2022/10/23 10:59:55;;;;;;;22.90;7.72;;;;;;;;;;5326362;27;20009;-71
2022/10/23 11:02:25;;;;;;;10.98;6.78;;;;;;;;;;5308867;27;20005;-72
2022/10/23 11:04:56;;;;;;;11.95;7.75;;;;;;;;;;5327164;27;20004;-72
2022/10/23 11:07:24;;;;;;;13.73;7.15;;;;;;;;;;5326031;27;20063;-71
2022/10/23 11:09:49;;;;;;;12.25;6.62;;;;;;;;;;5326178;27;20067;-71
2022/10/23 11:12:19;;;;;;;11.63;6.95;;;;;;;;;;5326747;27;20371;-71
2022/10/23 11:14:44;;;;;;;11.35;7.37;;;;;;;;;;5326672;27;20000;-72
2022/10/23 11:17:10;;;;;;;11.98;7.65;;;;;;;;;;5327303;27;20404;-71
2022/10/23 11:19:39;;;;;;;8.35;6.43;;;;;;;;;;5328182;27;20377;-72
2022/10/23 11:22:10;;;;;;;10.50;7.37;;;;;;;;;;5325561;27;20021;-72
2022/10/23 11:24:54;;;;;;;11.05;6.72;;;;;;;;;;5327977;27;20100;-72
2022/10/23 11:27:25;;;;;;;10.18;6.40;;;;;;;;;;5327994;27;20432;-73
2022/10/23 11:29:59;;;;;;;11.95;6.28;;;;;;;;;;5324133;27;20012;-73
2022/10/23 11:32:35;;;;;;;10.82;6.32;;;;;;;;;;5328529;27;20001;-72
2022/10/23 11:35:16;;;;;;;10.63;6.62;;;;;;;;;;5327952;27;20299;-73
2022/10/23 11:37:41;;;;;;;11.45;6.60;;;;;;;;;;5327516;27;20053;-72
2022/10/23 11:40:06;;;;;;;10.60;6.07;;;;;;;;;;5327991;26;20028;-72
2022/10/23 11:42:52;;;;;;;10.63;5.62;;;;;;;;;;5326062;27;20001;-72
2022/10/23 11:45:29;;;;;;;11.10;6.32;;;;;;;;;;5328431;27;20042;-72
2022/10/23 11:47:56;;;;;;;11.57;5.93;;;;;;;;;;5328140;27;20001;-71
2022/10/23 11:50:25;;;;;;;10.25;5.80;;;;;;;;;;5327296;27;20000;-72
2022/10/23 11:53:03;;;;;;;11.68;6.25;;;;;;;;;;5328151;27;20004;-72
2022/10/23 11:55:29;;;;;;;7.82;5.22;;;;;;;;;;5327569;27;20045;-72
2022/10/23 11:58:03;;;;;;;10.30;6.03;;;;;;;;;;5325097;27;20005;-71
2022/10/23 12:00:28;;;;;;;7.87;5.12;;;;;;;;;;5326210;27;20317;-72
2022/10/23 12:02:54;;;;;;;14.80;6.05;;;;;;;;;;5328693;27;20389;-72
2022/10/23 12:05:26;;;;;;;9.75;5.12;;;;;;;;;;5328467;27;20272;-72
2022/10/23 12:07:56;;;;;;;9.25;4.90;;;;;;;;;;5325756;27;20004;-72
2022/10/23 12:10:42;;;;;;;12.60;5.82;;;;;;;;;;5326336;27;20011;-72
2022/10/23 12:13:27;;;;;;;8.10;4.65;;;;;;;;;;5325271;27;20001;-71
2022/10/23 12:15:53;;;;;;;13.40;4.90;;;;;;;;;;5327845;27;20000;-72
2022/10/23 12:18:19;;;;;;;9.93;4.82;;;;;;;;;;5305210;27;20334;-72
2022/10/23 12:20:50;;;;;;;13.18;5.32;;;;;;;;;;5327504;27;20001;-72
2022/10/23 12:23:41;;;;;;;18.35;4.68;;;;;;;;;;5305487;27;20005;-71
2022/10/23 12:26:09;;;;;;;8.13;4.53;;;;;;;;;;5307438;27;20016;-71
2022/10/23 12:28:37;;;;;;;7.75;4.53;;;;;;;;;;5324596;27;20046;-72
2022/10/23 12:31:21;;;;;;;7.93;4.50;;;;;;;;;;5325602;27;20031;-72
2022/10/23 12:34:05;;;;;;;8.32;4.30;;;;;;;;;;5326905;27;20005;-71
2022/10/23 12:36:56;;;;;;;12.90;4.32;;;;;;;;;;5324825;27;20424;-72
2022/10/23 12:39:26;;;;;;;6.85;3.62;;;;;;;;;;5288058;27;20350;-72
2022/10/23 12:41:52;;;;;;;8.63;4.07;;;;;;;;;;5327872;27;20015;-72
2022/10/23 12:44:17;;;;;;;11.00;4.05;;;;;;;;;;5305577;27;20036;-72
2022/10/23 12:46:45;;;;;;;10.40;4.25;;;;;;;;;;5325163;27;20009;-73
2022/10/23 12:49:18;;;;;;;11.98;4.30;;;;;;;;;;5325131;27;20394;-71
2022/10/23 12:51:43;;;;;;;8.02;4.30;;;;;;;;;;5326674;27;20370;-73
2022/10/23 12:54:14;;;;;;;11.55;5.37;;;;;;;;;;5326256;27;20009;-72
2022/10/23 12:56:40;;;;;;;10.23;4.35;;;;;;;;;;5327264;27;20417;-72
2022/10/23 12:59:09;;;;;;;7.25;3.90;;;;;;;;;;5325634;27;20005;-70
2022/10/23 13:01:34;;;;;;;13.45;4.25;;;;;;;;;;5326677;27;20068;-71
2022/10/23 13:04:09;;;;;;;7.32;3.92;;;;;;;;;;5323893;27;19997;-72
2022/10/23 13:06:34;;;;;;;8.32;3.47;;;;;;;;;;5327310;27;20322;-72
2022/10/23 13:08:59;;;;;;;9.07;4.32;;;;;;;;;;5327848;27;20001;-73
2022/10/23 13:11:25;;;;;;;7.95;3.72;;;;;;;;;;5326618;27;20000;-72
2022/10/23 13:13:50;;;;;;;10.18;3.53;;;;;;;;;;5305687;27;20339;-73
2022/10/23 13:16:20;;;;;;;8.55;3.70;;;;;;;;;;5325376;27;20013;-72
2022/10/23 13:18:45;;;;;;;9.88;4.37;;;;;;;;;;5325906;27;20008;-72
2022/10/23 13:21:14;;;;;;;6.78;3.72;;;;;;;;;;5327741;27;20000;-73
2022/10/23 13:23:40;;;;;;;9.82;3.78;;;;;;;;;;5325940;27;20005;-71
2022/10/23 13:26:21;;;;;;;6.55;3.50;;;;;;;;;;5326361;27;20008;-72
2022/10/23 13:28:47;;;;;;;15.90;4.18;;;;;;;;;;5328750;27;19985;-72
2022/10/23 13:31:12;;;;;;;7.35;4.12;;;;;;;;;;5326767;27;20103;-72
2022/10/23 13:33:42;;;;;;;10.67;3.47;;;;;;;;;;5326155;27;20028;-70
2022/10/23 13:36:13;;;;;;;8.27;3.75;;;;;;;;;;5325219;27;20181;-72
2022/10/23 13:38:41;;;;;;;8.25;3.40;;;;;;;;;;5326960;26;20335;-72
2022/10/23 13:41:12;;;;;;;6.70;3.47;;;;;;;;;;5305619;27;20019;-71
2022/10/23 13:43:37;;;;;;;14.60;4.05;;;;;;;;;;5324860;27;20021;-71
2022/10/23 13:46:03;;;;;;;10.93;3.60;;;;;;;;;;5325365;27;20424;-71
2022/10/23 13:48:28;;;;;;;5.68;3.58;;;;;;;;;;5324664;27;20001;-72
2022/10/23 13:50:57;;;;;;;11.85;3.70;;;;;;;;;;5304713;27;20000;-72
2022/10/23 13:53:22;;;;;;;8.93;3.70;;;;;;;;;;5327479;27;20048;-73
2022/10/23 13:55:49;;;;;;;7.25;3.55;;;;;;;;;;5325582;27;20028;-72
2022/10/23 13:58:14;;;;;;;12.90;3.95;;;;;;;;;;5326895;27;20009;-72
2022/10/23 14:00:42;;;;;;;7.62;3.05;;;;;;;;;;5327827;27;20011;-73
2022/10/23 14:03:07;;;;;;;7.47;3.33;;;;;;;;;;5326627;27;20424;-72
2022/10/23 14:05:33;;;;;;;10.43;3.28;;;;;;;;;;5326087;27;20008;-72
2022/10/23 14:07:58;;;;;;;10.68;3.47;;;;;;;;;;5328486;27;20001;-72
2022/10/23 14:10:23;;;;;;;7.97;3.53;;;;;;;;;;5325928;27;20024;-72
2022/10/23 14:12:53;;;;;;;6.15;3.80;;;;;;;;;;5326697;27;20011;-72
2022/10/23 14:15:18;;;;;;;6.95;3.30;;;;;;;;;;5327114;27;20478;-72
2022/10/23 14:17:44;;;;;;;6.72;3.00;;;;;;;;;;5327493;27;20000;-72
2022/10/23 14:20:09;;;;;;;7.45;3.22;;;;;;;;;;5328652;27;20000;-73
2022/10/23 14:22:35;;;;;;;11.10;3.75;;;;;;;;;;5328789;27;20000;-72
2022/10/23 14:25:00;;;;;;;7.57;4.03;;;;;;;;;;5328816;27;20024;-72
2022/10/23 14:27:25;;;;;;;10.45;4.03;;;;;;;;;;5326819;27;20015;-71
2022/10/23 14:29:50;;;;;;;9.53;4.13;;;;;;;;;;5326874;27;20008;-75
2022/10/23 14:32:16;;;;;;;6.65;4.18;;;;;;;;;;5326598;27;20100;-72
2022/10/23 14:34:42;;;;;;;9.55;3.78;;;;;;;;;;5329063;27;20012;-73
2022/10/23 14:37:07;;;;;;;9.32;4.15;;;;;;;;;;5325024;27;20015;-72
2022/10/23 14:39:33;;;;;;;7.53;4.53;;;;;;;;;;5323477;26;20079;-73
2022/10/23 14:41:58;;;;;;;5.75;3.65;;;;;;;;;;5326904;27;20009;-72
2022/10/23 14:44:23;;;;;;;12.75;4.85;;;;;;;;;;5323903;27;20001;-72